sensor_id;sensor_type;location;lat;lon;timestamp;temperature;humidity
54938;DHT22;52756;52.826;6.214;2024-01-07T00:01:55;0.90;90.70
54938;DHT22;52756;52.826;6.214;2024-01-07T00:04:21;0.90;90.80
54938;DHT22;52756;52.826;6.214;2024-01-07T00:06:47;0.90;90.80
54938;DHT22;52756;52.826;6.214;2024-01-07T00:09:12;1.50;90.90
54938;DHT22;52756;52.826;6.214;2024-01-07T00:11:38;0.90;90.80
54938;DHT22;52756;52.826;6.214;2024-01-07T00:14:04;0.90;90.70
54938;DHT22;52756;52.826;6.214;2024-01-07T00:16:30;1.20;90.80
54938;DHT22;52756;52.826;6.214;2024-01-07T00:18:56;0.90;90.70
54938;DHT22;52756;52.826;6.214;2024-01-07T00:21:21;0.90;90.70
54938;DHT22;52756;52.826;6.214;2024-01-07T00:23:47;0.90;90.70
54938;DHT22;52756;52.826;6.214;2024-01-07T00:26:16;0.90;90.70
54938;DHT22;52756;52.826;6.214;2024-01-07T00:28:44;0.90;90.70
54938;DHT22;52756;52.826;6.214;2024-01-07T00:31:12;0.90;90.70
54938;DHT22;52756;52.826;6.214;2024-01-07T00:33:37;0.90;90.60
54938;DHT22;52756;52.826;6.214;2024-01-07T00:36:06;0.90;90.60
54938;DHT22;52756;52.826;6.214;2024-01-07T00:38:32;0.90;90.70
54938;DHT22;52756;52.826;6.214;2024-01-07T00:40:57;0.90;90.70
54938;DHT22;52756;52.826;6.214;2024-01-07T00:43:23;0.90;90.60
54938;DHT22;52756;52.826;6.214;2024-01-07T00:45:49;0.90;90.70
54938;DHT22;52756;52.826;6.214;2024-01-07T00:48:17;0.90;90.70
54938;DHT22;52756;52.826;6.214;2024-01-07T00:50:45;1.70;91.00
54938;DHT22;52756;52.826;6.214;2024-01-07T00:53:11;0.90;90.80
54938;DHT22;52756;52.826;6.214;2024-01-07T00:55:36;0.90;90.80
54938;DHT22;52756;52.826;6.214;2024-01-07T00:58:02;0.90;90.80
54938;DHT22;52756;52.826;6.214;2024-01-07T01:00:28;0.90;90.80
54938;DHT22;52756;52.826;6.214;2024-01-07T01:02:55;0.90;90.70
54938;DHT22;52756;52.826;6.214;2024-01-07T01:05:20;0.90;90.80
54938;DHT22;52756;52.826;6.214;2024-01-07T01:07:46;0.90;90.80
54938;DHT22;52756;52.826;6.214;2024-01-07T01:10:12;0.90;90.80
54938;DHT22;52756;52.826;6.214;2024-01-07T01:12:38;1.20;91.00
54938;DHT22;52756;52.826;6.214;2024-01-07T01:15:04;0.90;90.80
54938;DHT22;52756;52.826;6.214;2024-01-07T01:17:30;0.90;90.90
54938;DHT22;52756;52.826;6.214;2024-01-07T01:19:55;0.90;90.90
54938;DHT22;52756;52.826;6.214;2024-01-07T01:22:21;0.90;90.90
54938;DHT22;52756;52.826;6.214;2024-01-07T01:24:47;0.90;90.90
54938;DHT22;52756;52.826;6.214;2024-01-07T01:27:14;0.90;90.90
54938;DHT22;52756;52.826;6.214;2024-01-07T01:29:41;0.90;90.90
54938;DHT22;52756;52.826;6.214;2024-01-07T01:32:09;0.90;90.90
54938;DHT22;52756;52.826;6.214;2024-01-07T01:34:35;0.90;90.90
54938;DHT22;52756;52.826;6.214;2024-01-07T01:37:01;0.90;90.90
54938;DHT22;52756;52.826;6.214;2024-01-07T01:39:28;0.90;90.90
54938;DHT22;52756;52.826;6.214;2024-01-07T01:41:54;1.00;90.90
54938;DHT22;52756;52.826;6.214;2024-01-07T01:44:20;1.00;91.00
54938;DHT22;52756;52.826;6.214;2024-01-07T01:46:45;1.00;90.90
54938;DHT22;52756;52.826;6.214;2024-01-07T01:49:12;1.00;90.90
54938;DHT22;52756;52.826;6.214;2024-01-07T01:51:38;1.00;90.90
54938;DHT22;52756;52.826;6.214;2024-01-07T01:54:05;1.00;90.80
54938;DHT22;52756;52.826;6.214;2024-01-07T01:56:32;1.00;90.80
54938;DHT22;52756;52.826;6.214;2024-01-07T01:58:59;1.00;90.80
54938;DHT22;52756;52.826;6.214;2024-01-07T02:01:25;1.00;90.80
54938;DHT22;52756;52.826;6.214;2024-01-07T02:03:51;1.00;90.60
54938;DHT22;52756;52.826;6.214;2024-01-07T02:06:19;1.00;90.50
54938;DHT22;52756;52.826;6.214;2024-01-07T02:08:46;0.90;90.50
54938;DHT22;52756;52.826;6.214;2024-01-07T02:11:29;0.90;90.40
54938;DHT22;52756;52.826;6.214;2024-01-07T02:13:55;0.90;90.40
54938;DHT22;52756;52.826;6.214;2024-01-07T02:16:21;0.90;90.40
54938;DHT22;52756;52.826;6.214;2024-01-07T02:18:46;0.90;90.40
54938;DHT22;52756;52.826;6.214;2024-01-07T02:21:15;1.10;90.50
54938;DHT22;52756;52.826;6.214;2024-01-07T02:23:41;0.90;90.40
54938;DHT22;52756;52.826;6.214;2024-01-07T02:26:07;0.90;90.30
54938;DHT22;52756;52.826;6.214;2024-01-07T02:28:33;0.90;90.30
54938;DHT22;52756;52.826;6.214;2024-01-07T02:30:59;1.00;90.20
54938;DHT22;52756;52.826;6.214;2024-01-07T02:33:25;0.90;90.20
54938;DHT22;52756;52.826;6.214;2024-01-07T02:35:50;0.90;90.10
54938;DHT22;52756;52.826;6.214;2024-01-07T02:38:16;0.90;90.20
54938;DHT22;52756;52.826;6.214;2024-01-07T02:40:42;0.90;90.20
54938;DHT22;52756;52.826;6.214;2024-01-07T02:43:11;0.90;89.90
54938;DHT22;52756;52.826;6.214;2024-01-07T02:45:36;0.90;90.00
54938;DHT22;52756;52.826;6.214;2024-01-07T02:48:02;0.90;89.90
54938;DHT22;52756;52.826;6.214;2024-01-07T02:50:28;0.80;89.90
54938;DHT22;52756;52.826;6.214;2024-01-07T02:52:54;0.90;90.00
54938;DHT22;52756;52.826;6.214;2024-01-07T02:55:20;0.90;90.00
54938;DHT22;52756;52.826;6.214;2024-01-07T02:57:46;0.90;89.90
54938;DHT22;52756;52.826;6.214;2024-01-07T03:00:12;0.90;89.80
54938;DHT22;52756;52.826;6.214;2024-01-07T03:02:37;0.90;89.80
54938;DHT22;52756;52.826;6.214;2024-01-07T03:05:03;0.90;89.70
54938;DHT22;52756;52.826;6.214;2024-01-07T03:07:29;0.90;89.60
54938;DHT22;52756;52.826;6.214;2024-01-07T03:09:54;0.90;89.50
54938;DHT22;52756;52.826;6.214;2024-01-07T03:12:20;0.90;89.50
54938;DHT22;52756;52.826;6.214;2024-01-07T03:14:46;0.90;89.40
54938;DHT22;52756;52.826;6.214;2024-01-07T03:17:11;0.90;89.60
54938;DHT22;52756;52.826;6.214;2024-01-07T03:19:38;0.90;89.60
54938;DHT22;52756;52.826;6.214;2024-01-07T03:22:04;0.90;89.70
54938;DHT22;52756;52.826;6.214;2024-01-07T03:24:31;0.90;89.60
54938;DHT22;52756;52.826;6.214;2024-01-07T03:26:57;0.90;89.40
54938;DHT22;52756;52.826;6.214;2024-01-07T03:29:22;0.90;89.00
54938;DHT22;52756;52.826;6.214;2024-01-07T03:31:48;0.90;89.00
54938;DHT22;52756;52.826;6.214;2024-01-07T03:34:16;0.90;89.10
54938;DHT22;52756;52.826;6.214;2024-01-07T03:36:41;0.90;89.10
54938;DHT22;52756;52.826;6.214;2024-01-07T03:39:07;0.80;88.50
54938;DHT22;52756;52.826;6.214;2024-01-07T03:41:33;0.80;88.60
54938;DHT22;52756;52.826;6.214;2024-01-07T03:43:59;0.80;88.30
54938;DHT22;52756;52.826;6.214;2024-01-07T03:46:24;0.80;88.40
54938;DHT22;52756;52.826;6.214;2024-01-07T03:48:50;0.80;88.20
54938;DHT22;52756;52.826;6.214;2024-01-07T03:51:16;0.80;88.80
54938;DHT22;52756;52.826;6.214;2024-01-07T03:53:41;0.80;88.10
54938;DHT22;52756;52.826;6.214;2024-01-07T03:56:07;0.80;88.20
54938;DHT22;52756;52.826;6.214;2024-01-07T03:58:35;0.70;87.80
54938;DHT22;52756;52.826;6.214;2024-01-07T04:01:04;0.80;87.90
54938;DHT22;52756;52.826;6.214;2024-01-07T04:03:30;0.80;87.90
54938;DHT22;52756;52.826;6.214;2024-01-07T04:05:55;0.70;87.90
54938;DHT22;52756;52.826;6.214;2024-01-07T04:08:21;0.70;87.80
54938;DHT22;52756;52.826;6.214;2024-01-07T04:10:47;0.70;87.90
54938;DHT22;52756;52.826;6.214;2024-01-07T04:13:13;0.70;87.90
54938;DHT22;52756;52.826;6.214;2024-01-07T04:15:38;0.70;87.80
54938;DHT22;52756;52.826;6.214;2024-01-07T04:18:04;0.70;87.80
54938;DHT22;52756;52.826;6.214;2024-01-07T04:20:30;0.70;87.90
54938;DHT22;52756;52.826;6.214;2024-01-07T04:22:57;0.70;88.10
54938;DHT22;52756;52.826;6.214;2024-01-07T04:25:26;0.70;87.90
54938;DHT22;52756;52.826;6.214;2024-01-07T04:27:52;0.70;88.00
54938;DHT22;52756;52.826;6.214;2024-01-07T04:30:17;0.70;88.00
54938;DHT22;52756;52.826;6.214;2024-01-07T04:32:43;0.70;87.90
54938;DHT22;52756;52.826;6.214;2024-01-07T04:35:08;0.70;87.90
54938;DHT22;52756;52.826;6.214;2024-01-07T04:37:35;0.70;87.90
54938;DHT22;52756;52.826;6.214;2024-01-07T04:40:01;0.70;88.00
54938;DHT22;52756;52.826;6.214;2024-01-07T04:42:27;0.70;87.70
54938;DHT22;52756;52.826;6.214;2024-01-07T04:44:53;0.70;87.50
54938;DHT22;52756;52.826;6.214;2024-01-07T04:47:28;0.70;87.60
54938;DHT22;52756;52.826;6.214;2024-01-07T04:49:54;0.70;87.60
54938;DHT22;52756;52.826;6.214;2024-01-07T04:52:22;0.70;87.50
54938;DHT22;52756;52.826;6.214;2024-01-07T04:54:48;0.70;87.40
54938;DHT22;52756;52.826;6.214;2024-01-07T04:57:14;0.60;87.30
54938;DHT22;52756;52.826;6.214;2024-01-07T04:59:40;0.70;86.90
54938;DHT22;52756;52.826;6.214;2024-01-07T05:02:05;0.60;86.60
54938;DHT22;52756;52.826;6.214;2024-01-07T05:04:32;0.60;86.50
54938;DHT22;52756;52.826;6.214;2024-01-07T05:06:57;0.60;86.40
54938;DHT22;52756;52.826;6.214;2024-01-07T05:09:23;0.60;86.30
54938;DHT22;52756;52.826;6.214;2024-01-07T05:11:48;0.60;86.10
54938;DHT22;52756;52.826;6.214;2024-01-07T05:14:14;0.60;86.50
54938;DHT22;52756;52.826;6.214;2024-01-07T05:16:40;0.50;86.10
54938;DHT22;52756;52.826;6.214;2024-01-07T05:19:05;0.60;86.20
54938;DHT22;52756;52.826;6.214;2024-01-07T05:21:31;0.50;85.80
54938;DHT22;52756;52.826;6.214;2024-01-07T05:23:56;0.60;85.70
54938;DHT22;52756;52.826;6.214;2024-01-07T05:26:22;0.50;85.50
54938;DHT22;52756;52.826;6.214;2024-01-07T05:28:48;0.70;85.80
54938;DHT22;52756;52.826;6.214;2024-01-07T05:31:17;0.50;85.40
54938;DHT22;52756;52.826;6.214;2024-01-07T05:33:43;0.50;85.60
54938;DHT22;52756;52.826;6.214;2024-01-07T05:36:13;0.50;85.30
54938;DHT22;52756;52.826;6.214;2024-01-07T05:38:39;0.50;85.30
54938;DHT22;52756;52.826;6.214;2024-01-07T05:41:05;0.50;85.10
54938;DHT22;52756;52.826;6.214;2024-01-07T05:43:30;0.50;85.00
54938;DHT22;52756;52.826;6.214;2024-01-07T05:45:56;0.50;85.10
54938;DHT22;52756;52.826;6.214;2024-01-07T05:48:22;0.50;84.90
54938;DHT22;52756;52.826;6.214;2024-01-07T05:50:48;0.50;85.10
54938;DHT22;52756;52.826;6.214;2024-01-07T05:53:14;0.50;84.60
54938;DHT22;52756;52.826;6.214;2024-01-07T05:55:40;0.50;84.40
54938;DHT22;52756;52.826;6.214;2024-01-07T05:58:05;0.50;84.20
54938;DHT22;52756;52.826;6.214;2024-01-07T06:00:31;0.50;84.40
54938;DHT22;52756;52.826;6.214;2024-01-07T06:02:57;0.50;84.40
54938;DHT22;52756;52.826;6.214;2024-01-07T06:05:23;0.50;84.20
54938;DHT22;52756;52.826;6.214;2024-01-07T06:07:49;0.50;84.50
54938;DHT22;52756;52.826;6.214;2024-01-07T06:10:14;0.50;84.40
54938;DHT22;52756;52.826;6.214;2024-01-07T06:12:40;0.50;84.30
54938;DHT22;52756;52.826;6.214;2024-01-07T06:15:06;0.50;84.10
54938;DHT22;52756;52.826;6.214;2024-01-07T06:17:32;0.50;84.00
54938;DHT22;52756;52.826;6.214;2024-01-07T06:19:57;0.50;83.90
54938;DHT22;52756;52.826;6.214;2024-01-07T06:22:23;0.50;83.80
54938;DHT22;52756;52.826;6.214;2024-01-07T06:24:49;0.50;83.50
54938;DHT22;52756;52.826;6.214;2024-01-07T06:27:14;0.50;83.40
54938;DHT22;52756;52.826;6.214;2024-01-07T06:29:40;0.50;82.90
54938;DHT22;52756;52.826;6.214;2024-01-07T06:32:06;0.50;83.00
54938;DHT22;52756;52.826;6.214;2024-01-07T06:34:31;0.50;82.70
54938;DHT22;52756;52.826;6.214;2024-01-07T06:36:58;0.40;82.30
54938;DHT22;52756;52.826;6.214;2024-01-07T06:39:24;0.40;82.60
54938;DHT22;52756;52.826;6.214;2024-01-07T06:41:55;0.40;82.60
54938;DHT22;52756;52.826;6.214;2024-01-07T06:44:20;0.40;81.90
54938;DHT22;52756;52.826;6.214;2024-01-07T06:46:46;0.40;82.00
54938;DHT22;52756;52.826;6.214;2024-01-07T06:49:11;0.40;82.10
54938;DHT22;52756;52.826;6.214;2024-01-07T06:51:37;0.40;82.00
54938;DHT22;52756;52.826;6.214;2024-01-07T06:54:03;0.40;81.60
54938;DHT22;52756;52.826;6.214;2024-01-07T06:56:29;0.40;81.50
54938;DHT22;52756;52.826;6.214;2024-01-07T06:58:55;0.40;81.30
54938;DHT22;52756;52.826;6.214;2024-01-07T07:01:21;0.30;81.50
54938;DHT22;52756;52.826;6.214;2024-01-07T07:03:49;0.30;81.60
54938;DHT22;52756;52.826;6.214;2024-01-07T07:06:15;0.30;81.70
54938;DHT22;52756;52.826;6.214;2024-01-07T07:08:40;0.30;81.50
54938;DHT22;52756;52.826;6.214;2024-01-07T07:11:06;0.30;81.00
54938;DHT22;52756;52.826;6.214;2024-01-07T07:13:32;0.30;81.20
54938;DHT22;52756;52.826;6.214;2024-01-07T07:15:57;0.30;81.00
54938;DHT22;52756;52.826;6.214;2024-01-07T07:18:23;0.30;81.00
54938;DHT22;52756;52.826;6.214;2024-01-07T07:20:49;0.30;81.10
54938;DHT22;52756;52.826;6.214;2024-01-07T07:23:15;0.30;80.90
54938;DHT22;52756;52.826;6.214;2024-01-07T07:25:41;0.20;81.10
54938;DHT22;52756;52.826;6.214;2024-01-07T07:28:06;0.30;81.30
54938;DHT22;52756;52.826;6.214;2024-01-07T07:30:32;0.20;81.40
54938;DHT22;52756;52.826;6.214;2024-01-07T07:32:57;0.30;81.40
54938;DHT22;52756;52.826;6.214;2024-01-07T07:35:23;0.30;81.50
54938;DHT22;52756;52.826;6.214;2024-01-07T07:37:48;0.30;81.60
54938;DHT22;52756;52.826;6.214;2024-01-07T07:40:14;0.30;81.20
54938;DHT22;52756;52.826;6.214;2024-01-07T07:42:40;0.40;81.20
54938;DHT22;52756;52.826;6.214;2024-01-07T07:45:06;0.30;81.20
54938;DHT22;52756;52.826;6.214;2024-01-07T07:47:31;0.40;81.30
54938;DHT22;52756;52.826;6.214;2024-01-07T07:49:57;0.40;80.90
54938;DHT22;52756;52.826;6.214;2024-01-07T07:52:23;0.40;80.40
54938;DHT22;52756;52.826;6.214;2024-01-07T07:54:52;0.40;80.30
54938;DHT22;52756;52.826;6.214;2024-01-07T07:57:17;0.40;80.20
54938;DHT22;52756;52.826;6.214;2024-01-07T07:59:46;0.40;80.00
54938;DHT22;52756;52.826;6.214;2024-01-07T08:02:12;0.40;79.80
54938;DHT22;52756;52.826;6.214;2024-01-07T08:04:37;0.50;79.40
54938;DHT22;52756;52.826;6.214;2024-01-07T08:07:06;0.40;79.20
54938;DHT22;52756;52.826;6.214;2024-01-07T08:09:32;0.40;79.70
54938;DHT22;52756;52.826;6.214;2024-01-07T08:11:58;0.40;79.40
54938;DHT22;52756;52.826;6.214;2024-01-07T08:14:23;1.00;79.60
54938;DHT22;52756;52.826;6.214;2024-01-07T08:16:49;0.40;79.30
54938;DHT22;52756;52.826;6.214;2024-01-07T08:19:15;0.50;78.90
54938;DHT22;52756;52.826;6.214;2024-01-07T08:21:40;0.50;78.90
54938;DHT22;52756;52.826;6.214;2024-01-07T08:24:06;0.40;79.00
54938;DHT22;52756;52.826;6.214;2024-01-07T08:26:31;0.50;79.00
54938;DHT22;52756;52.826;6.214;2024-01-07T08:28:57;0.50;78.50
54938;DHT22;52756;52.826;6.214;2024-01-07T08:31:23;0.50;78.40
54938;DHT22;52756;52.826;6.214;2024-01-07T08:33:49;0.50;78.50
54938;DHT22;52756;52.826;6.214;2024-01-07T08:36:15;0.40;78.30
54938;DHT22;52756;52.826;6.214;2024-01-07T08:38:40;0.40;78.10
54938;DHT22;52756;52.826;6.214;2024-01-07T08:41:06;0.40;77.20
54938;DHT22;52756;52.826;6.214;2024-01-07T08:43:32;0.40;76.70
54938;DHT22;52756;52.826;6.214;2024-01-07T08:45:59;0.30;76.70
54938;DHT22;52756;52.826;6.214;2024-01-07T08:48:24;0.30;76.90
54938;DHT22;52756;52.826;6.214;2024-01-07T08:50:50;0.20;77.20
54938;DHT22;52756;52.826;6.214;2024-01-07T08:53:16;0.20;77.30
54938;DHT22;52756;52.826;6.214;2024-01-07T08:55:42;0.20;77.30
54938;DHT22;52756;52.826;6.214;2024-01-07T08:58:07;0.20;77.20
54938;DHT22;52756;52.826;6.214;2024-01-07T09:00:33;0.10;77.30
54938;DHT22;52756;52.826;6.214;2024-01-07T09:02:58;0.10;76.80
54938;DHT22;52756;52.826;6.214;2024-01-07T09:05:24;0.10;76.90
54938;DHT22;52756;52.826;6.214;2024-01-07T09:07:50;0.10;77.00
54938;DHT22;52756;52.826;6.214;2024-01-07T09:10:16;0.10;76.90
54938;DHT22;52756;52.826;6.214;2024-01-07T09:12:41;0.00;77.20
54938;DHT22;52756;52.826;6.214;2024-01-07T09:15:08;0.00;77.20
54938;DHT22;52756;52.826;6.214;2024-01-07T09:17:37;0.00;77.00
54938;DHT22;52756;52.826;6.214;2024-01-07T09:20:08;0.00;77.10
54938;DHT22;52756;52.826;6.214;2024-01-07T09:22:34;0.00;76.80
54938;DHT22;52756;52.826;6.214;2024-01-07T09:25:03;0.00;76.80
54938;DHT22;52756;52.826;6.214;2024-01-07T09:27:30;0.00;76.80
54938;DHT22;52756;52.826;6.214;2024-01-07T09:29:55;0.00;76.60
54938;DHT22;52756;52.826;6.214;2024-01-07T09:32:21;0.20;76.60
54938;DHT22;52756;52.826;6.214;2024-01-07T09:34:47;0.00;76.70
54938;DHT22;52756;52.826;6.214;2024-01-07T09:37:13;0.00;76.70
54938;DHT22;52756;52.826;6.214;2024-01-07T09:39:42;0.10;76.60
54938;DHT22;52756;52.826;6.214;2024-01-07T09:42:13;0.10;76.80
54938;DHT22;52756;52.826;6.214;2024-01-07T09:44:40;0.10;77.10
54938;DHT22;52756;52.826;6.214;2024-01-07T09:47:06;0.90;77.50
54938;DHT22;52756;52.826;6.214;2024-01-07T09:49:32;0.20;77.20
54938;DHT22;52756;52.826;6.214;2024-01-07T09:52:00;0.20;77.20
54938;DHT22;52756;52.826;6.214;2024-01-07T09:54:28;0.30;77.00
54938;DHT22;52756;52.826;6.214;2024-01-07T09:57:00;1.10;77.00
54938;DHT22;52756;52.826;6.214;2024-01-07T09:59:30;1.00;76.40
54938;DHT22;52756;52.826;6.214;2024-01-07T10:01:56;0.50;76.00
54938;DHT22;52756;52.826;6.214;2024-01-07T10:04:24;0.50;75.70
54938;DHT22;52756;52.826;6.214;2024-01-07T10:06:50;0.60;75.80
54938;DHT22;52756;52.826;6.214;2024-01-07T10:09:17;0.60;75.50
54938;DHT22;52756;52.826;6.214;2024-01-07T10:11:45;0.60;75.00
54938;DHT22;52756;52.826;6.214;2024-01-07T10:14:11;0.70;74.40
54938;DHT22;52756;52.826;6.214;2024-01-07T10:16:37;0.70;74.50
54938;DHT22;52756;52.826;6.214;2024-01-07T10:19:02;0.70;74.40
54938;DHT22;52756;52.826;6.214;2024-01-07T10:21:28;0.80;74.20
54938;DHT22;52756;52.826;6.214;2024-01-07T10:24:10;0.80;73.30
54938;DHT22;52756;52.826;6.214;2024-01-07T10:26:40;0.80;72.70
54938;DHT22;52756;52.826;6.214;2024-01-07T10:29:07;1.50;72.90
54938;DHT22;52756;52.826;6.214;2024-01-07T10:31:33;0.90;72.70
54938;DHT22;52756;52.826;6.214;2024-01-07T10:33:59;0.90;73.00
54938;DHT22;52756;52.826;6.214;2024-01-07T10:36:25;1.00;72.70
54938;DHT22;52756;52.826;6.214;2024-01-07T10:38:51;1.00;73.30
54938;DHT22;52756;52.826;6.214;2024-01-07T10:41:20;1.00;73.40
54938;DHT22;52756;52.826;6.214;2024-01-07T10:43:47;1.10;72.40
54938;DHT22;52756;52.826;6.214;2024-01-07T10:46:14;1.10;72.00
54938;DHT22;52756;52.826;6.214;2024-01-07T10:48:55;1.20;71.80
54938;DHT22;52756;52.826;6.214;2024-01-07T10:51:24;1.20;71.60
54938;DHT22;52756;52.826;6.214;2024-01-07T10:53:53;1.20;71.30
54938;DHT22;52756;52.826;6.214;2024-01-07T10:56:29;1.90;71.30
54938;DHT22;52756;52.826;6.214;2024-01-07T10:58:55;1.10;70.00
54938;DHT22;52756;52.826;6.214;2024-01-07T11:01:21;1.10;70.30
54938;DHT22;52756;52.826;6.214;2024-01-07T11:04:01;1.00;70.60
54938;DHT22;52756;52.826;6.214;2024-01-07T11:06:52;1.10;70.50
54938;DHT22;52756;52.826;6.214;2024-01-07T11:09:39;1.10;71.60
54938;DHT22;52756;52.826;6.214;2024-01-07T11:12:11;1.10;70.20
54938;DHT22;52756;52.826;6.214;2024-01-07T11:14:38;1.60;70.90
54938;DHT22;52756;52.826;6.214;2024-01-07T11:17:11;1.10;70.00
54938;DHT22;52756;52.826;6.214;2024-01-07T11:19:37;1.10;70.30
54938;DHT22;52756;52.826;6.214;2024-01-07T11:22:22;1.10;69.40
54938;DHT22;52756;52.826;6.214;2024-01-07T11:24:49;1.00;69.70
54938;DHT22;52756;52.826;6.214;2024-01-07T11:27:16;1.10;70.60
54938;DHT22;52756;52.826;6.214;2024-01-07T11:29:41;1.10;70.70
54938;DHT22;52756;52.826;6.214;2024-01-07T11:32:07;1.10;71.50
54938;DHT22;52756;52.826;6.214;2024-01-07T11:34:43;1.10;71.20
54938;DHT22;52756;52.826;6.214;2024-01-07T11:37:11;1.10;70.90
54938;DHT22;52756;52.826;6.214;2024-01-07T11:39:42;1.10;70.70
54938;DHT22;52756;52.826;6.214;2024-01-07T11:42:10;1.10;70.40
54938;DHT22;52756;52.826;6.214;2024-01-07T11:44:35;1.10;70.60
54938;DHT22;52756;52.826;6.214;2024-01-07T11:47:04;1.10;71.00
54938;DHT22;52756;52.826;6.214;2024-01-07T11:49:32;1.10;70.90
54938;DHT22;52756;52.826;6.214;2024-01-07T11:51:58;1.10;70.90
54938;DHT22;52756;52.826;6.214;2024-01-07T11:54:23;1.10;70.20
54938;DHT22;52756;52.826;6.214;2024-01-07T11:56:49;1.10;70.10
54938;DHT22;52756;52.826;6.214;2024-01-07T11:59:17;1.10;70.10
54938;DHT22;52756;52.826;6.214;2024-01-07T12:01:43;1.10;70.00
54938;DHT22;52756;52.826;6.214;2024-01-07T12:04:09;1.10;70.00
54938;DHT22;52756;52.826;6.214;2024-01-07T12:06:35;1.10;69.80
54938;DHT22;52756;52.826;6.214;2024-01-07T12:09:01;1.20;68.80
54938;DHT22;52756;52.826;6.214;2024-01-07T12:11:27;1.20;68.70
54938;DHT22;52756;52.826;6.214;2024-01-07T12:13:53;1.20;69.50
54938;DHT22;52756;52.826;6.214;2024-01-07T12:16:18;1.20;70.20
54938;DHT22;52756;52.826;6.214;2024-01-07T12:18:44;1.20;70.20
54938;DHT22;52756;52.826;6.214;2024-01-07T12:21:10;1.30;69.10
54938;DHT22;52756;52.826;6.214;2024-01-07T12:23:36;1.30;69.50
54938;DHT22;52756;52.826;6.214;2024-01-07T12:26:09;1.30;69.70
54938;DHT22;52756;52.826;6.214;2024-01-07T12:28:35;1.30;70.00
54938;DHT22;52756;52.826;6.214;2024-01-07T12:31:03;1.30;69.60
54938;DHT22;52756;52.826;6.214;2024-01-07T12:33:37;1.40;69.00
54938;DHT22;52756;52.826;6.214;2024-01-07T12:36:03;1.60;69.10
54938;DHT22;52756;52.826;6.214;2024-01-07T12:38:29;1.40;69.00
54938;DHT22;52756;52.826;6.214;2024-01-07T12:40:55;1.40;68.70
54938;DHT22;52756;52.826;6.214;2024-01-07T12:43:22;1.40;69.10
54938;DHT22;52756;52.826;6.214;2024-01-07T12:45:48;2.00;69.90
54938;DHT22;52756;52.826;6.214;2024-01-07T12:48:14;1.40;70.00
54938;DHT22;52756;52.826;6.214;2024-01-07T12:50:40;1.50;70.50
54938;DHT22;52756;52.826;6.214;2024-01-07T12:53:06;1.50;70.80
54938;DHT22;52756;52.826;6.214;2024-01-07T12:55:32;1.50;70.70
54938;DHT22;52756;52.826;6.214;2024-01-07T12:57:58;1.60;70.80
54938;DHT22;52756;52.826;6.214;2024-01-07T13:00:25;1.60;70.30
54938;DHT22;52756;52.826;6.214;2024-01-07T13:02:52;2.00;70.00
54938;DHT22;52756;52.826;6.214;2024-01-07T13:05:17;1.60;69.40
54938;DHT22;52756;52.826;6.214;2024-01-07T13:07:44;1.60;69.80
54938;DHT22;52756;52.826;6.214;2024-01-07T13:10:10;1.60;70.40
54938;DHT22;52756;52.826;6.214;2024-01-07T13:12:36;1.50;70.70
54938;DHT22;52756;52.826;6.214;2024-01-07T13:15:03;1.60;70.90
54938;DHT22;52756;52.826;6.214;2024-01-07T13:17:29;1.50;71.20
54938;DHT22;52756;52.826;6.214;2024-01-07T13:19:56;2.40;72.00
54938;DHT22;52756;52.826;6.214;2024-01-07T13:22:21;1.50;71.80
54938;DHT22;52756;52.826;6.214;2024-01-07T13:24:47;1.50;71.20
54938;DHT22;52756;52.826;6.214;2024-01-07T13:27:13;2.30;71.70
54938;DHT22;52756;52.826;6.214;2024-01-07T13:29:38;1.50;71.80
54938;DHT22;52756;52.826;6.214;2024-01-07T13:32:04;1.50;71.70
54938;DHT22;52756;52.826;6.214;2024-01-07T13:34:30;1.50;72.10
54938;DHT22;52756;52.826;6.214;2024-01-07T13:36:56;1.50;72.50
54938;DHT22;52756;52.826;6.214;2024-01-07T13:39:22;1.60;73.10
54938;DHT22;52756;52.826;6.214;2024-01-07T13:41:50;1.60;72.80
54938;DHT22;52756;52.826;6.214;2024-01-07T13:44:16;1.50;72.70
54938;DHT22;52756;52.826;6.214;2024-01-07T13:46:45;1.70;73.40
54938;DHT22;52756;52.826;6.214;2024-01-07T13:49:12;1.50;73.70
54938;DHT22;52756;52.826;6.214;2024-01-07T13:51:38;2.20;74.20
54938;DHT22;52756;52.826;6.214;2024-01-07T13:54:04;1.50;74.00
54938;DHT22;52756;52.826;6.214;2024-01-07T13:56:31;1.50;74.10
54938;DHT22;52756;52.826;6.214;2024-01-07T13:58:56;1.50;74.20
54938;DHT22;52756;52.826;6.214;2024-01-07T14:01:22;1.50;74.40
54938;DHT22;52756;52.826;6.214;2024-01-07T14:03:48;1.50;75.10
54938;DHT22;52756;52.826;6.214;2024-01-07T14:06:13;1.50;75.10
54938;DHT22;52756;52.826;6.214;2024-01-07T14:08:39;1.50;75.20
54938;DHT22;52756;52.826;6.214;2024-01-07T14:11:04;1.50;75.30
54938;DHT22;52756;52.826;6.214;2024-01-07T14:13:32;1.50;75.40
54938;DHT22;52756;52.826;6.214;2024-01-07T14:15:58;1.50;75.30
54938;DHT22;52756;52.826;6.214;2024-01-07T14:18:24;1.50;75.40
54938;DHT22;52756;52.826;6.214;2024-01-07T14:20:49;1.50;75.50
54938;DHT22;52756;52.826;6.214;2024-01-07T14:23:15;1.60;75.50
54938;DHT22;52756;52.826;6.214;2024-01-07T14:25:40;1.40;75.50
54938;DHT22;52756;52.826;6.214;2024-01-07T14:28:07;1.60;75.90
54938;DHT22;52756;52.826;6.214;2024-01-07T14:30:33;2.00;76.00
54938;DHT22;52756;52.826;6.214;2024-01-07T14:32:58;1.90;76.20
54938;DHT22;52756;52.826;6.214;2024-01-07T14:35:24;1.40;76.10
54938;DHT22;52756;52.826;6.214;2024-01-07T14:37:51;1.30;76.20
54938;DHT22;52756;52.826;6.214;2024-01-07T14:40:20;1.30;76.30
54938;DHT22;52756;52.826;6.214;2024-01-07T14:42:46;1.30;76.50
54938;DHT22;52756;52.826;6.214;2024-01-07T14:45:12;1.20;76.60
54938;DHT22;52756;52.826;6.214;2024-01-07T14:47:38;1.20;76.90
54938;DHT22;52756;52.826;6.214;2024-01-07T14:50:04;1.20;76.90
54938;DHT22;52756;52.826;6.214;2024-01-07T14:52:29;1.10;77.10
54938;DHT22;52756;52.826;6.214;2024-01-07T14:54:55;1.10;77.30
54938;DHT22;52756;52.826;6.214;2024-01-07T14:57:21;1.10;77.50
54938;DHT22;52756;52.826;6.214;2024-01-07T14:59:47;1.10;77.80
54938;DHT22;52756;52.826;6.214;2024-01-07T15:02:13;1.10;77.90
54938;DHT22;52756;52.826;6.214;2024-01-07T15:04:38;1.00;78.00
54938;DHT22;52756;52.826;6.214;2024-01-07T15:07:04;1.00;78.00
54938;DHT22;52756;52.826;6.214;2024-01-07T15:09:30;1.70;78.40
54938;DHT22;52756;52.826;6.214;2024-01-07T15:11:56;1.00;78.00
54938;DHT22;52756;52.826;6.214;2024-01-07T15:14:21;0.90;78.10
54938;DHT22;52756;52.826;6.214;2024-01-07T15:16:48;0.90;78.10
54938;DHT22;52756;52.826;6.214;2024-01-07T15:19:19;0.90;78.40
54938;DHT22;52756;52.826;6.214;2024-01-07T15:21:45;0.90;78.60
54938;DHT22;52756;52.826;6.214;2024-01-07T15:24:11;0.90;78.50
54938;DHT22;52756;52.826;6.214;2024-01-07T15:26:37;0.80;78.60
54938;DHT22;52756;52.826;6.214;2024-01-07T15:29:04;0.80;78.60
54938;DHT22;52756;52.826;6.214;2024-01-07T15:31:29;0.80;78.60
54938;DHT22;52756;52.826;6.214;2024-01-07T15:33:55;0.80;78.70
54938;DHT22;52756;52.826;6.214;2024-01-07T15:36:20;0.80;78.90
54938;DHT22;52756;52.826;6.214;2024-01-07T15:38:46;0.70;78.90
54938;DHT22;52756;52.826;6.214;2024-01-07T15:41:11;0.70;79.10